Time;durP1;ratioP1;P1;durP2;ratioP2;P2;SDS_P1;SDS_P2;PMS_P1;PMS_P2;Temp;Humidity;BMP_temperature;BMP_pressure;BME280_temperature;BME280_humidity;BME280_pressure;Samples;Min_cycle;Max_cycle;Signal;HPM_P1;HPM_P2
2023/08/15 00:00:48;;;;;;;4.53;3.90;;;;;;;21.77;70.37;100176.66;10160215;29;20052;-78
2023/08/15 00:05:51;;;;;;;7.80;4.22;;;;;;;21.82;69.78;100160.47;10167721;29;20045;-78
2023/08/15 00:10:54;;;;;;;7.75;3.92;;;;;;;21.82;69.73;100168.69;10169407;29;20055;-77
2023/08/15 00:15:58;;;;;;;5.68;3.88;;;;;;;21.78;69.77;100161.94;10175048;29;20044;-78
2023/08/15 00:21:01;;;;;;;5.53;4.30;;;;;;;21.83;69.81;100162.19;10165352;29;20052;-77
2023/08/15 00:26:04;;;;;;;8.00;4.30;;;;;;;21.84;69.41;100163.88;10172806;29;20056;-78
2023/08/15 00:31:08;;;;;;;5.18;3.72;;;;;;;21.82;69.56;100159.66;10177448;29;20055;-77
2023/08/15 00:36:11;;;;;;;6.68;4.10;;;;;;;21.80;69.53;100157.13;10161270;29;20136;-77
2023/08/15 00:41:14;;;;;;;6.50;3.85;;;;;;;21.81;69.19;100158.81;10161672;29;20147;-77
2023/08/15 00:46:18;;;;;;;4.18;3.53;;;;;;;21.81;69.10;100152.50;10167561;29;20044;-77
2023/08/15 00:51:21;;;;;;;5.32;3.78;;;;;;;21.72;69.83;100157.28;10165068;29;20119;-78
2023/08/15 00:56:24;;;;;;;6.32;3.95;;;;;;;21.64;70.24;100155.53;10171110;29;20047;-78
2023/08/15 01:01:29;;;;;;;8.23;4.05;;;;;;;21.55;70.83;100145.81;10169484;29;20040;-78
2023/08/15 01:06:32;;;;;;;5.30;3.50;;;;;;;21.50;70.95;100152.94;10176892;29;20071;-77
2023/08/15 01:11:45;;;;;;;3.83;3.40;;;;;;;21.42;71.61;100149.34;10173826;29;20103;-77
2023/08/15 01:16:53;;;;;;;4.72;3.92;;;;;;;21.42;71.59;100154.78;10166773;29;20512;-77
2023/08/15 01:21:58;;;;;;;7.70;4.35;;;;;;;21.18;71.68;100149.81;10173934;29;20040;-77
2023/08/15 01:27:03;;;;;;;9.13;4.25;;;;;;;21.09;72.40;100145.53;10178386;29;20109;-78
2023/08/15 01:32:15;;;;;;;7.00;4.38;;;;;;;21.11;72.70;100146.19;10169889;29;20048;-78
2023/08/15 01:37:26;;;;;;;6.22;3.97;;;;;;;21.04;72.26;100143.41;10170204;29;20346;-78
2023/08/15 01:42:32;;;;;;;6.28;4.00;;;;;;;21.03;72.48;100136.22;10166104;29;20512;-78
2023/08/15 01:47:35;;;;;;;5.78;4.50;;;;;;;21.02;72.38;100131.81;10178084;29;20051;-79
2023/08/15 01:52:38;;;;;;;5.40;3.85;;;;;;;21.01;72.43;100133.69;10186883;29;20048;-78
2023/08/15 01:57:42;;;;;;;7.07;4.32;;;;;;;20.95;73.08;100120.84;10187412;29;20044;-78
2023/08/15 02:02:45;;;;;;;4.93;4.30;;;;;;;20.87;72.85;100123.72;10195135;29;20440;-79
2023/08/15 02:07:48;;;;;;;5.55;4.65;;;;;;;20.91;73.34;100133.19;10174813;29;20033;-79
2023/08/15 02:12:52;;;;;;;6.68;4.88;;;;;;;20.87;73.19;100123.72;10167691;29;20551;-78
2023/08/15 02:17:55;;;;;;;4.25;3.80;;;;;;;20.86;72.91;100130.22;10158111;29;20568;-78
2023/08/15 02:22:59;;;;;;;5.93;4.25;;;;;;;20.82;73.17;100126.19;10162790;29;20107;-78
2023/08/15 02:28:03;;;;;;;5.72;4.22;;;;;;;20.79;72.97;100129.34;10167520;29;20132;-78
2023/08/15 02:33:06;;;;;;;9.00;4.40;;;;;;;20.84;73.32;100125.97;10156272;29;20419;-78
2023/08/15 02:38:09;;;;;;;5.22;4.40;;;;;;;20.81;73.24;100129.94;10171634;29;20049;-79
2023/08/15 02:43:14;;;;;;;6.35;4.30;;;;;;;20.79;73.08;100134.78;10184140;29;20041;-79
2023/08/15 02:48:17;;;;;;;6.38;4.30;;;;;;;20.71;73.56;100141.22;10179629;29;20041;-79
2023/08/15 02:53:20;;;;;;;4.75;4.15;;;;;;;20.68;73.71;100140.75;10176204;29;20059;-78
2023/08/15 02:58:24;;;;;;;6.40;4.68;;;;;;;20.70;73.52;100130.50;10186476;29;20058;-76
2023/08/15 03:03:27;;;;;;;6.53;4.70;;;;;;;20.60;73.81;100130.84;10173331;29;20158;-78
2023/08/15 03:08:31;;;;;;;8.07;5.45;;;;;;;20.54;73.98;100116.09;10178060;29;20041;-78
2023/08/15 03:13:35;;;;;;;5.95;4.65;;;;;;;20.53;74.01;100119.84;10178236;29;20048;-78
2023/08/15 03:18:39;;;;;;;5.60;5.10;;;;;;;20.53;74.09;100121.75;10181266;29;20063;-78
2023/08/15 03:23:42;;;;;;;5.95;5.00;;;;;;;20.48;74.70;100108.69;10170882;29;20052;-78
2023/08/15 03:28:47;;;;;;;8.48;4.97;;;;;;;20.47;74.55;100112.47;10173566;29;20055;-78
2023/08/15 03:33:50;;;;;;;5.88;4.47;;;;;;;20.51;74.80;100124.66;10173428;29;20043;-78
2023/08/15 03:38:54;;;;;;;7.80;4.90;;;;;;;20.55;74.16;100127.84;10180328;29;20052;-78
2023/08/15 03:43:58;;;;;;;8.32;5.13;;;;;;;20.56;74.10;100119.47;10181640;29;20487;-78
2023/08/15 03:49:02;;;;;;;7.47;5.60;;;;;;;20.58;74.47;100127.47;10183263;29;20050;-78
2023/08/15 03:54:06;;;;;;;7.30;5.43;;;;;;;20.49;74.80;100129.47;10173437;29;20083;-78
2023/08/15 03:59:10;;;;;;;11.30;6.22;;;;;;;20.54;74.84;100128.88;10181081;29;20047;-78
2023/08/15 04:04:13;;;;;;;8.80;5.18;;;;;;;20.55;74.61;100128.69;10188119;29;20132;-78
2023/08/15 04:09:16;;;;;;;8.43;5.57;;;;;;;20.60;74.69;100128.13;10168962;29;20055;-78
2023/08/15 04:14:20;;;;;;;7.60;5.32;;;;;;;20.62;74.93;100122.44;10183320;29;20047;-78
2023/08/15 04:19:24;;;;;;;8.63;5.30;;;;;;;20.64;74.44;100126.66;10172970;29;20048;-78
2023/08/15 04:24:27;;;;;;;5.75;5.25;;;;;;;20.70;74.68;100150.44;10197226;29;20089;-78
2023/08/15 04:29:31;;;;;;;7.68;5.60;;;;;;;20.65;74.87;100142.03;10217442;29;20059;-78
2023/08/15 04:34:34;;;;;;;7.90;5.30;;;;;;;20.85;74.37;100144.06;10192343;29;20040;-78
2023/08/15 04:39:37;;;;;;;7.95;5.57;;;;;;;20.90;73.97;100153.34;10182157;29;20393;-78
2023/08/15 04:44:41;;;;;;;12.98;6.10;;;;;;;20.93;73.99;100152.13;10186051;29;20044;-78
2023/08/15 04:49:44;;;;;;;6.22;5.20;;;;;;;20.96;73.83;100149.81;10174971;29;20103;-78
2023/08/15 04:54:47;;;;;;;6.35;5.63;;;;;;;20.95;74.52;100161.81;10175198;29;20040;-78
2023/08/15 04:59:51;;;;;;;7.03;5.30;;;;;;;20.92;74.62;100155.88;10173647;29;20595;-78
2023/08/15 05:04:54;;;;;;;7.80;5.75;;;;;;;21.00;74.63;100170.22;10171316;29;20044;-79
2023/08/15 05:09:57;;;;;;;7.07;6.03;;;;;;;20.93;75.00;100204.81;10171539;29;20602;-79
2023/08/15 05:15:02;;;;;;;8.63;5.72;;;;;;;20.26;80.53;100255.06;10174030;29;20047;-78
2023/08/15 05:20:07;;;;;;;13.93;6.22;;;;;;;19.43;87.54;100264.38;10185083;29;20052;-78
2023/08/15 05:25:10;;;;;;;11.98;7.60;;;;;;;18.76;100.00;100265.09;10182062;29;20885;-78
2023/08/15 05:30:21;;;;;;;16.63;8.98;;;;;;;18.51;100.00;100288.84;10179572;29;20108;-79
2023/08/15 05:35:24;;;;;;;12.80;7.30;;;;;;;18.43;100.00;100322.41;10183955;29;20048;-78
2023/08/15 05:40:27;;;;;;;7.15;6.03;;;;;;;18.47;100.00;100285.66;10180417;29;20052;-78
2023/08/15 05:45:32;;;;;;;11.15;5.45;;;;;;;18.53;100.00;100279.47;10176015;29;20059;-77
2023/08/15 05:50:35;;;;;;;20.13;6.28;;;;;;;18.60;100.00;100257.03;10175666;29;20052;-78
2023/08/15 05:55:38;;;;;;;5.13;4.32;;;;;;;18.53;100.00;100246.84;10178410;29;20036;-78
2023/08/15 06:00:42;;;;;;;10.73;5.20;;;;;;;18.61;100.00;100223.34;10181325;29;20500;-77
2023/08/15 06:05:45;;;;;;;5.75;3.88;;;;;;;18.63;100.00;100232.19;10170763;29;20047;-78
2023/08/15 06:10:48;;;;;;;8.00;4.80;;;;;;;18.75;100.00;100198.91;10171441;29;20044;-79
2023/08/15 06:15:53;;;;;;;7.68;5.30;;;;;;;18.85;100.00;100149.72;10170827;29;20528;-76
2023/08/15 06:20:55;;;;;;;7.85;5.35;;;;;;;18.90;100.00;100201.72;10172656;29;20052;-77
2023/08/15 06:25:58;;;;;;;8.45;5.22;;;;;;;18.73;100.00;100214.59;10170197;29;20049;-78
2023/08/15 06:31:02;;;;;;;9.23;4.25;;;;;;;18.84;100.00;100243.28;10173298;29;20203;-78
2023/08/15 06:36:06;;;;;;;5.20;3.92;;;;;;;18.82;100.00;100258.94;10164292;29;20043;-77
2023/08/15 06:41:09;;;;;;;7.00;3.67;;;;;;;18.80;100.00;100263.72;10162027;29;20044;-78
2023/08/15 06:46:13;;;;;;;9.43;3.63;;;;;;;18.90;100.00;100275.22;10171685;29;20039;-77
2023/08/15 06:51:16;;;;;;;10.80;4.47;;;;;;;19.32;100.00;100262.09;10187348;29;20083;-77
2023/08/15 06:56:19;;;;;;;9.48;4.28;;;;;;;19.54;100.00;100255.75;10172151;29;20120;-76
2023/08/15 07:01:23;;;;;;;8.50;4.53;;;;;;;19.68;100.00;100270.44;10167724;29;20054;-77
2023/08/15 07:06:26;;;;;;;4.07;3.67;;;;;;;19.62;100.00;100282.94;10159730;29;20083;-77
2023/08/15 07:11:29;;;;;;;9.88;4.70;;;;;;;19.55;100.00;100281.94;10158497;29;20105;-77
2023/08/15 07:16:33;;;;;;;6.30;4.38;;;;;;;19.72;100.00;100266.31;10159693;29;20072;-77
2023/08/15 07:21:36;;;;;;;6.47;4.22;;;;;;;20.20;100.00;100268.66;10157872;29;20045;-78
2023/08/15 07:26:39;;;;;;;6.57;4.50;;;;;;;20.45;100.00;100286.41;10159023;29;20421;-78
2023/08/15 07:31:44;;;;;;;5.40;4.05;;;;;;;20.58;100.00;100276.69;10151040;29;20060;-78
2023/08/15 07:36:46;;;;;;;6.15;3.90;;;;;;;20.64;100.00;100276.75;10156965;29;20465;-77
2023/08/15 07:41:49;;;;;;;4.47;3.75;;;;;;;20.80;100.00;100297.50;10155602;29;20055;-78
2023/08/15 07:46:54;;;;;;;4.55;3.17;;;;;;;20.92;99.85;100293.22;10154933;29;20108;-78
2023/08/15 07:51:57;;;;;;;4.97;3.70;;;;;;;21.10;99.29;100309.19;10159941;29;20048;-78
2023/08/15 07:57:00;;;;;;;4.38;3.38;;;;;;;20.92;94.69;100306.03;10161961;29;20036;-77
2023/08/15 08:02:04;;;;;;;3.42;3.13;;;;;;;21.15;98.98;100294.94;10166059;29;20048;-77
2023/08/15 08:07:07;;;;;;;4.75;3.25;;;;;;;21.34;93.59;100305.22;10189810;29;20044;-77
2023/08/15 08:12:10;;;;;;;3.55;3.13;;;;;;;21.68;93.51;100309.88;10187939;29;20048;-77
2023/08/15 08:17:14;;;;;;;4.47;3.60;;;;;;;21.63;89.77;100328.75;10170345;29;20044;-77
2023/08/15 08:22:17;;;;;;;6.18;3.83;;;;;;;20.97;84.63;100341.78;10162554;29;20096;-77
2023/08/15 08:27:20;;;;;;;6.65;3.83;;;;;;;21.45;86.15;100325.69;10166775;29;20047;-77
2023/08/15 08:32:25;;;;;;;6.07;3.90;;;;;;;21.45;83.75;100342.91;10173381;29;20054;-74
2023/08/15 08:37:27;;;;;;;6.22;4.40;;;;;;;21.50;85.21;100339.56;10169471;29;20039;-75
2023/08/15 08:42:30;;;;;;;7.40;4.90;;;;;;;21.82;82.56;100324.50;10164321;29;20079;-75
2023/08/15 08:47:35;;;;;;;7.20;4.65;;;;;;;22.18;81.33;100333.56;10165396;29;20169;-77
2023/08/15 08:52:45;;;;;;;6.90;5.32;;;;;;;22.37;80.17;100335.56;10169415;29;20059;-76
2023/08/15 08:57:52;;;;;;;6.57;4.18;;;;;;;22.62;76.94;100343.28;10171644;29;20068;-76
2023/08/15 09:02:56;;;;;;;5.35;4.50;;;;;;;22.91;76.47;100350.34;10176489;29;20096;-77
2023/08/15 09:08:01;;;;;;;5.10;3.90;;;;;;;22.81;74.94;100361.69;10164641;29;20055;-77
2023/08/15 09:13:05;;;;;;;8.27;5.03;;;;;;;22.68;75.58;100358.88;10160030;29;20528;-77
2023/08/15 09:18:09;;;;;;;6.47;5.32;;;;;;;22.62;76.78;100374.25;10168565;29;20050;-77
2023/08/15 09:23:12;;;;;;;7.82;5.10;;;;;;;22.74;74.62;100363.56;10171921;29;20067;-77
2023/08/15 09:28:15;;;;;;;5.80;5.07;;;;;;;23.08;72.54;100359.03;10167251;29;20056;-77
2023/08/15 09:33:20;;;;;;;6.45;4.63;;;;;;;23.35;69.60;100370.91;10166587;29;20048;-79
2023/08/15 09:38:23;;;;;;;7.00;4.97;;;;;;;23.16;72.60;100359.69;10172367;29;20044;-76
2023/08/15 09:43:26;;;;;;;8.63;6.88;;;;;;;23.17;73.65;100358.63;10167186;29;20123;-78
2023/08/15 09:48:31;;;;;;;7.80;6.20;;;;;;;23.39;70.78;100366.69;10167191;29;20064;-77
2023/08/15 09:53:35;;;;;;;10.00;5.82;;;;;;;23.70;70.52;100357.84;10201111;29;20047;-75
2023/08/15 09:58:39;;;;;;;6.85;5.50;;;;;;;23.38;70.71;100365.00;10204174;29;20036;-77
2023/08/15 10:03:45;;;;;;;8.88;5.85;;;;;;;23.06;72.14;100388.50;10177050;29;20044;-78
2023/08/15 10:08:49;;;;;;;9.95;6.55;;;;;;;22.78;72.21;100381.25;10171471;29;20056;-79
2023/08/15 10:13:52;;;;;;;10.63;6.78;;;;;;;23.60;68.94;100382.94;10166872;29;20051;-78
2023/08/15 10:18:58;;;;;;;9.63;6.65;;;;;;;24.12;67.79;100388.63;10164634;29;20048;-79
2023/08/15 10:24:04;;;;;;;10.40;7.25;;;;;;;24.32;66.93;100394.91;10162389;29;20047;-79
2023/08/15 10:29:08;;;;;;;12.82;7.60;;;;;;;24.17;64.05;100394.31;10176130;29;20040;-77
2023/08/15 10:34:12;;;;;;;11.65;6.93;;;;;;;24.02;64.16;100402.78;10176560;29;20787;-78
2023/08/15 10:39:16;;;;;;;10.13;6.32;;;;;;;24.40;62.49;100420.50;10184483;29;20122;-78
2023/08/15 10:44:19;;;;;;;12.80;7.82;;;;;;;24.37;63.15;100413.50;10175018;29;20094;-78
2023/08/15 10:49:24;;;;;;;14.90;8.90;;;;;;;25.00;62.16;100403.78;10175791;29;20051;-77
2023/08/15 10:54:27;;;;;;;14.00;10.65;;;;;;;25.59;59.33;100400.69;10174283;29;20044;-78
2023/08/15 10:59:30;;;;;;;15.40;9.48;;;;;;;25.22;59.00;100412.59;10174157;29;20420;-77
2023/08/15 11:04:34;;;;;;;16.65;10.57;;;;;;;25.67;58.45;100421.63;10176618;29;20044;-75
2023/08/15 11:09:37;;;;;;;15.05;10.15;;;;;;;26.45;57.08;100423.03;10185539;29;20044;-77
2023/08/15 11:14:40;;;;;;;14.40;10.60;;;;;;;25.95;56.86;100432.19;10174350;29;20415;-76
2023/08/15 11:19:46;;;;;;;16.50;12.38;;;;;;;25.29;58.91;100425.22;10166627;29;20056;-77
2023/08/15 11:24:51;;;;;;;13.82;9.13;;;;;;;26.13;56.53;100425.88;10173475;29;20044;-77
2023/08/15 11:29:57;;;;;;;10.95;9.77;;;;;;;26.44;55.71;100432.34;10164875;29;20111;-77
2023/08/15 11:35:01;;;;;;;14.80;9.98;;;;;;;25.54;56.99;100454.69;10167620;29;20525;-77
2023/08/15 11:40:06;;;;;;;14.38;11.07;;;;;;;25.01;58.98;100447.53;10166452;29;20143;-78
2023/08/15 11:45:10;;;;;;;13.50;10.52;;;;;;;25.47;57.55;100443.72;10167274;29;20044;-77
2023/08/15 11:50:14;;;;;;;15.07;12.27;;;;;;;24.84;60.12;100454.56;10169454;29;20400;-77
2023/08/15 11:55:19;;;;;;;16.38;11.38;;;;;;;24.91;59.86;100447.16;10168462;29;20040;-77
2023/08/15 12:00:22;;;;;;;18.55;10.52;;;;;;;24.97;58.34;100454.53;10159831;29;20099;-77
2023/08/15 12:05:26;;;;;;;11.52;10.32;;;;;;;25.36;57.39;100449.91;10168108;29;20080;-76
2023/08/15 12:10:31;;;;;;;13.27;8.70;;;;;;;25.37;56.81;100451.63;10172275;29;20111;-78
2023/08/15 12:15:34;;;;;;;10.00;7.60;;;;;;;26.13;53.17;100447.88;10171871;29;20056;-77
2023/08/15 12:20:38;;;;;;;9.93;7.53;;;;;;;26.78;51.26;100443.84;10157174;29;20056;-75
2023/08/15 12:25:41;;;;;;;11.13;6.95;;;;;;;26.98;51.01;100441.72;10152114;29;21680;-76
2023/08/15 12:30:44;;;;;;;10.25;8.00;;;;;;;28.77;48.73;100431.63;10126301;29;21257;-77
2023/08/15 12:35:48;;;;;;;12.35;6.78;;;;;;;28.49;47.00;100434.03;10136699;29;20052;-77
2023/08/15 12:40:52;;;;;;;7.07;5.38;;;;;;;27.86;47.89;100437.47;10124816;28;20053;-77
2023/08/15 12:45:55;;;;;;;13.93;6.45;;;;;;;26.45;50.26;100445.91;10127389;29;21271;-77
2023/08/15 12:51:00;;;;;;;9.00;6.30;;;;;;;26.66;50.22;100441.03;10129049;28;20060;-76
2023/08/15 12:56:03;;;;;;;11.20;5.68;;;;;;;27.85;47.58;100435.81;10130836;28;20048;-77
2023/08/15 13:01:06;;;;;;;10.70;5.60;;;;;;;28.52;46.56;100443.78;10125179;28;20048;-76
2023/08/15 13:06:11;;;;;;;12.15;5.95;;;;;;;27.93;47.06;100427.19;10127784;29;20048;-77
2023/08/15 13:11:15;;;;;;;7.60;5.47;;;;;;;29.19;45.80;100423.94;10129483;28;20059;-77
2023/08/15 13:16:18;;;;;;;9.55;6.30;;;;;;;29.04;45.12;100418.91;10125147;29;20540;-76
2023/08/15 13:21:22;;;;;;;10.70;6.43;;;;;;;28.37;46.64;100424.09;10133755;29;20185;-77
2023/08/15 13:26:25;;;;;;;11.88;6.50;;;;;;;27.39;48.21;100445.63;10130793;29;20443;-76
2023/08/15 13:31:28;;;;;;;11.88;5.95;;;;;;;27.24;47.62;100432.25;10127683;29;20063;-77
2023/08/15 13:36:32;;;;;;;11.93;5.75;;;;;;;27.65;47.47;100438.91;10127185;28;20572;-76
2023/08/15 13:41:35;;;;;;;6.50;5.40;;;;;;;27.82;47.15;100439.03;10124697;28;20057;-76
2023/08/15 13:46:38;;;;;;;6.95;4.28;;;;;;;27.27;46.18;100451.09;10129397;28;20063;-77
2023/08/15 13:51:43;;;;;;;7.05;5.53;;;;;;;27.21;47.95;100462.19;10131987;29;20052;-75
2023/08/15 13:56:46;;;;;;;9.40;5.18;;;;;;;27.29;48.62;100454.47;10139595;29;20905;-77
2023/08/15 14:01:49;;;;;;;6.38;4.45;;;;;;;27.64;47.78;100463.94;10131624;29;20055;-76
2023/08/15 14:06:58;;;;;;;6.68;4.28;;;;;;;26.90;47.87;100456.66;10125892;28;20048;-77
2023/08/15 14:12:01;;;;;;;8.48;4.10;;;;;;;27.33;46.12;100463.94;10128722;28;20086;-75
2023/08/15 14:17:06;;;;;;;5.25;3.88;;;;;;;26.79;47.60;100464.81;10123491;29;20052;-76
2023/08/15 14:22:11;;;;;;;7.88;4.25;;;;;;;27.54;46.13;100451.59;10125860;29;20051;-77
2023/08/15 14:27:13;;;;;;;5.10;3.60;;;;;;;27.32;46.25;100466.94;10126515;29;20066;-77
2023/08/15 14:32:16;;;;;;;5.40;3.95;;;;;;;27.31;46.75;100451.44;10137190;28;20048;-78
2023/08/15 14:37:21;;;;;;;4.90;3.70;;;;;;;27.57;46.21;100453.88;10131501;29;21235;-78
2023/08/15 14:42:24;;;;;;;6.50;3.63;;;;;;;27.09;45.61;100457.47;10133244;29;20059;-78
2023/08/15 14:47:28;;;;;;;5.57;3.10;;;;;;;27.67;45.89;100457.97;10133136;28;20127;-77
2023/08/15 14:52:33;;;;;;;7.18;3.60;;;;;;;27.65;45.52;100449.94;10135054;28;20044;-77
2023/08/15 14:57:36;;;;;;;7.30;2.75;;;;;;;28.29;44.47;100428.06;10139139;28;20063;-77
2023/08/15 15:02:42;;;;;;;4.38;2.42;;;;;;;27.81;43.36;100426.31;10136684;28;20060;-78
2023/08/15 15:07:47;;;;;;;3.83;1.98;;;;;;;27.61;44.37;100432.16;10131115;29;20052;-77
2023/08/15 15:12:50;;;;;;;3.28;1.98;;;;;;;27.14;45.59;100441.06;10134910;29;20056;-78
2023/08/15 15:17:52;;;;;;;5.93;2.47;;;;;;;26.80;45.83;100431.53;10130150;29;20056;-77
2023/08/15 15:22:57;;;;;;;5.07;2.55;;;;;;;26.70;46.23;100439.50;10117329;29;20123;-76
2023/08/15 15:28:00;;;;;;;3.63;2.00;;;;;;;26.83;45.79;100428.34;10114268;28;20060;-76
2023/08/15 15:33:03;;;;;;;4.22;2.05;;;;;;;25.96;47.11;100430.25;10118812;29;20048;-76
2023/08/15 15:38:07;;;;;;;5.53;2.10;;;;;;;25.89;48.03;100424.84;10124501;29;20051;-76
2023/08/15 15:43:10;;;;;;;5.00;2.67;;;;;;;26.15;47.68;100420.97;10136738;29;20464;-76
2023/08/15 15:48:12;;;;;;;3.63;1.90;;;;;;;26.31;47.84;100422.34;10134040;29;20792;-76
2023/08/15 15:53:17;;;;;;;3.22;1.83;;;;;;;26.34;47.73;100421.06;10124590;28;20504;-76
2023/08/15 15:58:19;;;;;;;6.15;1.83;;;;;;;26.58;48.02;100417.38;10118528;28;21404;-75
2023/08/15 16:03:22;;;;;;;3.40;2.00;;;;;;;26.42;48.14;100421.59;10123771;29;20060;-75
2023/08/15 16:08:27;;;;;;;7.72;2.03;;;;;;;26.54;48.35;100427.16;10131913;29;20068;-78
2023/08/15 16:13:30;;;;;;;5.88;2.30;;;;;;;26.70;49.35;100434.81;10134619;29;20059;-77
2023/08/15 16:18:33;;;;;;;5.28;2.08;;;;;;;26.01;47.94;100447.78;10130514;29;20150;-78
2023/08/15 16:23:37;;;;;;;6.32;2.25;;;;;;;26.03;48.78;100451.16;10121588;28;20852;-78
2023/08/15 16:28:40;;;;;;;5.13;2.13;;;;;;;26.26;49.69;100456.06;10130533;29;20779;-79
2023/08/15 16:33:43;;;;;;;4.38;1.98;;;;;;;26.07;49.86;100448.78;10121509;29;20045;-78
2023/08/15 16:38:47;;;;;;;4.85;1.90;;;;;;;26.08;50.19;100454.09;10134415;29;20044;-78
2023/08/15 16:43:50;;;;;;;3.67;2.00;;;;;;;26.97;46.79;100456.59;10164526;29;20063;-78
2023/08/15 16:48:53;;;;;;;6.32;1.92;;;;;;;26.56;48.55;100457.25;10143314;28;20079;-79
2023/08/15 16:53:57;;;;;;;4.32;1.70;;;;;;;27.99;45.17;100470.41;10123680;29;20092;-78
2023/08/15 16:59:00;;;;;;;3.17;1.70;;;;;;;28.49;44.15;100463.59;10122412;29;20044;-78
2023/08/15 17:04:04;;;;;;;2.70;1.67;;;;;;;29.37;42.87;100476.31;10119978;29;20415;-78
2023/08/15 17:09:09;;;;;;;4.28;1.58;;;;;;;28.73;41.37;100481.00;10127243;29;20135;-79
2023/08/15 17:14:12;;;;;;;4.53;1.80;;;;;;;28.78;41.79;100478.38;10122991;28;20260;-78
2023/08/15 17:19:15;;;;;;;3.92;1.63;;;;;;;28.83;41.90;100485.94;10125496;28;20047;-78
2023/08/15 17:24:19;;;;;;;5.93;1.70;;;;;;;30.46;39.78;100477.06;10132613;28;20062;-79
2023/08/15 17:29:22;;;;;;;4.40;1.48;;;;;;;28.08;43.77;100498.50;10138358;29;20064;-79
2023/08/15 17:34:25;;;;;;;3.22;1.40;;;;;;;29.01;42.32;100496.81;10135780;29;20063;-78
2023/08/15 17:39:29;;;;;;;4.90;1.92;;;;;;;29.10;42.38;100491.75;10138857;29;20189;-78
2023/08/15 17:44:32;;;;;;;4.85;1.95;;;;;;;27.59;44.42;100508.78;10124568;28;20055;-78
2023/08/15 17:49:35;;;;;;;3.50;1.50;;;;;;;26.61;46.85;100501.47;10141907;28;20051;-78
2023/08/15 17:54:40;;;;;;;2.67;1.60;;;;;;;25.81;49.70;100511.25;10132305;29;20085;-78
2023/08/15 17:59:43;;;;;;;2.15;1.60;;;;;;;25.83;51.55;100513.75;10131632;29;20058;-77
2023/08/15 18:04:46;;;;;;;4.80;2.55;;;;;;;25.68;51.91;100511.31;10128265;29;20059;-76
2023/08/15 18:09:50;;;;;;;2.70;1.90;;;;;;;25.62;51.63;100523.19;10131838;29;20610;-79
2023/08/15 18:14:53;;;;;;;5.35;2.25;;;;;;;25.55;52.48;100527.88;10132804;28;21260;-76
2023/08/15 18:19:56;;;;;;;3.45;1.98;;;;;;;25.09;53.67;100543.47;10132805;29;20163;-76
2023/08/15 18:25:00;;;;;;;4.35;1.75;;;;;;;24.93;53.23;100552.16;10129757;29;20504;-76
2023/08/15 18:30:03;;;;;;;4.45;1.85;;;;;;;24.88;55.26;100555.59;10132493;29;20179;-78
2023/08/15 18:35:07;;;;;;;4.05;2.05;;;;;;;24.62;54.12;100564.69;10134096;29;20099;-78
2023/08/15 18:40:12;;;;;;;3.83;2.13;;;;;;;24.22;56.63;100564.69;10120503;28;20084;-78
2023/08/15 18:45:15;;;;;;;4.45;2.20;;;;;;;24.12;56.07;100566.16;10120945;29;20059;-78
2023/08/15 18:50:19;;;;;;;5.82;2.28;;;;;;;23.92;55.83;100586.16;10124585;28;20067;-77
2023/08/15 18:55:24;;;;;;;3.85;2.05;;;;;;;23.79;56.52;100580.66;10122284;29;20416;-77
2023/08/15 19:00:27;;;;;;;3.63;2.03;;;;;;;23.50;57.61;100590.00;10130210;29;20052;-78
2023/08/15 19:05:30;;;;;;;4.95;2.60;;;;;;;23.31;57.81;100589.72;10131723;28;20134;-77
2023/08/15 19:10:34;;;;;;;5.28;1.90;;;;;;;22.87;58.79;100592.78;10128797;28;20067;-78
2023/08/15 19:15:38;;;;;;;2.70;2.03;;;;;;;22.90;58.88;100592.38;10137163;29;21602;-78
2023/08/15 19:20:41;;;;;;;11.77;2.80;;;;;;;22.62;59.54;100606.09;10132378;29;20126;-77
2023/08/15 19:25:46;;;;;;;6.75;2.53;;;;;;;22.51;60.14;100604.72;10128102;29;20071;-76
2023/08/15 19:30:49;;;;;;;5.60;2.05;;;;;;;22.56;59.80;100607.72;10126479;29;20123;-77
2023/08/15 19:35:52;;;;;;;5.00;2.55;;;;;;;22.63;59.44;100616.84;10135239;28;20063;-76
2023/08/15 19:40:56;;;;;;;4.28;2.45;;;;;;;22.29;60.53;100621.13;10135186;28;20058;-77
2023/08/15 19:45:59;;;;;;;5.10;2.80;;;;;;;22.37;60.94;100622.88;10132489;29;20608;-77
2023/08/15 19:51:02;;;;;;;8.10;2.80;;;;;;;22.29;61.11;100629.34;10134003;29;20048;-76
2023/08/15 19:56:06;;;;;;;5.93;2.90;;;;;;;22.24;61.49;100633.69;10132171;29;20063;-77
2023/08/15 20:01:10;;;;;;;5.60;3.10;;;;;;;22.33;61.81;100632.56;10126862;28;20051;-77
2023/08/15 20:06:13;;;;;;;3.97;2.53;;;;;;;22.13;62.26;100624.13;10127548;28;20048;-76
2023/08/15 20:11:17;;;;;;;9.60;2.70;;;;;;;21.91;62.44;100628.72;10123844;28;20613;-76
2023/08/15 20:16:20;;;;;;;6.00;3.15;;;;;;;22.01;62.57;100623.78;10129522;29;20520;-76
2023/08/15 20:21:23;;;;;;;6.57;3.17;;;;;;;22.04;62.57;100631.63;10125941;29;20056;-75
2023/08/15 20:26:27;;;;;;;5.72;2.90;;;;;;;21.89;63.66;100625.38;10124572;29;20512;-76
2023/08/15 20:31:30;;;;;;;6.60;3.15;;;;;;;21.94;63.68;100635.69;10130140;28;20067;-76
2023/08/15 20:36:33;;;;;;;6.20;3.00;;;;;;;21.97;64.43;100627.09;10133861;28;20048;-76
2023/08/15 20:41:37;;;;;;;5.90;3.40;;;;;;;21.77;64.76;100638.66;10134783;29;20048;-76
2023/08/15 20:46:40;;;;;;;5.82;3.28;;;;;;;21.64;65.96;100638.50;10130339;29;20071;-76
2023/08/15 20:51:43;;;;;;;8.68;4.05;;;;;;;21.54;65.89;100637.94;10129841;29;20195;-75
2023/08/15 20:56:47;;;;;;;5.75;3.58;;;;;;;21.37;66.70;100640.03;10126737;29;20172;-75
2023/08/15 21:01:50;;;;;;;6.78;3.97;;;;;;;21.14;68.28;100651.03;10132999;28;20772;-75
2023/08/15 21:06:53;;;;;;;7.50;3.72;;;;;;;21.01;69.12;100646.19;10127725;29;20516;-76
2023/08/15 21:11:57;;;;;;;8.50;4.13;;;;;;;21.12;68.90;100648.50;10131675;29;20088;-75
2023/08/15 21:17:02;;;;;;;6.82;4.40;;;;;;;20.96;69.88;100663.13;10123196;29;20175;-75
2023/08/15 21:22:05;;;;;;;6.90;4.53;;;;;;;20.58;71.28;100666.91;10123778;29;21257;-75
2023/08/15 21:27:09;;;;;;;11.68;4.07;;;;;;;20.13;73.09;100675.72;10128900;28;20135;-75
2023/08/15 21:32:12;;;;;;;11.25;4.28;;;;;;;20.25;72.59;100687.06;10132249;28;20162;-76
2023/08/15 21:37:15;;;;;;;5.60;3.53;;;;;;;20.44;71.64;100682.19;10129670;29;20088;-76
2023/08/15 21:42:19;;;;;;;8.95;4.18;;;;;;;20.51;71.27;100692.16;10122083;29;20096;-76
2023/08/15 21:47:22;;;;;;;4.65;4.10;;;;;;;20.55;71.74;100685.34;10126784;29;20060;-76
2023/08/15 21:52:25;;;;;;;6.43;4.10;;;;;;;20.58;71.35;100686.00;10126769;29;20143;-76
2023/08/15 21:57:29;;;;;;;8.77;3.97;;;;;;;20.58;71.45;100686.00;10126282;28;20048;-76
2023/08/15 22:02:32;;;;;;;9.05;4.35;;;;;;;20.56;71.65;100692.47;10127555;29;21254;-78
2023/08/15 22:07:35;;;;;;;6.32;4.18;;;;;;;20.41;71.98;100688.84;10120640;29;20539;-76
2023/08/15 22:12:39;;;;;;;7.93;4.32;;;;;;;20.04;73.37;100701.31;10125472;29;20096;-76
2023/08/15 22:17:42;;;;;;;7.18;5.05;;;;;;;19.93;74.38;100711.78;10125156;29;20519;-76
2023/08/15 22:22:49;;;;;;;8.15;5.00;;;;;;;19.79;75.16;100722.41;10125761;28;21101;-76
2023/08/15 22:27:54;;;;;;;5.10;4.60;;;;;;;19.82;75.76;100732.09;10126746;28;20111;-77
2023/08/15 22:32:57;;;;;;;13.43;5.68;;;;;;;19.92;75.69;100731.91;10124517;29;21300;-76
2023/08/15 22:38:00;;;;;;;7.60;5.07;;;;;;;19.82;75.74;100738.41;10128005;29;20070;-77
2023/08/15 22:43:05;;;;;;;11.43;6.57;;;;;;;19.78;75.45;100739.78;10123979;29;20044;-76
2023/08/15 22:48:07;;;;;;;12.77;6.22;;;;;;;19.68;74.94;100747.31;10126663;28;20059;-76
2023/08/15 22:53:10;;;;;;;7.93;5.07;;;;;;;19.71;75.33;100736.06;10120936;28;20075;-76
2023/08/15 22:58:17;;;;;;;8.63;5.47;;;;;;;19.85;74.69;100729.00;10121575;29;20067;-77
2023/08/15 23:03:20;;;;;;;6.22;5.25;;;;;;;19.85;74.85;100729.00;10122658;29;20109;-77
2023/08/15 23:08:23;;;;;;;11.55;5.40;;;;;;;19.83;74.51;100725.63;10124140;29;20067;-77